Arnoldsburg, West Virginia
Current Conditions -  °F | °C
As of 5:54 AM on Thursday 27 Nov 2014 (Local Time) from KCRW Reporting Station
Light Snow Light Snow  
Wind Chill: 35°   Ceiling: 300
Heat Index: 35°   Visibility: 4mi
Dew Point: 33°   Wind: 3mph
Humidity: 92%   Direction: NA
Pressure: 30.04"   Gusts: NA
Location:  38.79°N, 81.13°W
Report Text: KCRW 271054Z VRB03KT 4SM -RASN BR OVC003 02/01 A3004 RMK AO2 RAB02SNB20 SLP177 P0000 T00170006
Loading
Personal Weather Stations






























Interactive Weather Map New forecast layout! Learn more

10-Day Weather Forecast

Advertisements
Track Severe Weather on mobile